Tiempo atmosférico en la estación meteorológica de Josa i Tuixén, Lleida (1190 m.)



Fecha
DESCASC
Temp. máxima en grados centígrados (hora)
DESCASC
Temp. mínima en grados centígrados (hora)
DESCASC
Temp. media en grados centígrados
DESCASC
Racha de viento máxima en m/sg (hora)
DESCASC
Velocidad máxima media en intervalos de 10 minutos(hora)
DESCASC
Precipitaciones diarias en mm
DESCASC
Precipitaciones de 00:00 a 06:00 en mm
DESCASC
Precipitaciones de 06:00 a 12:00 en mm
DESCASC
Precipitaciones de 12:00 a 18:00 en mm
DESCASC
Precipitaciones de 18:00 a 24:00 en mm
DESCASC

Gráficas

Temp. máximas Temp. mínimas Temp. medias Precipitaciones Rachas de viento máximas Velocidades máximas media en intervalos de 10 minutos

Datos horarios

Fecha y hora oficial Temperatura (ºC) Velocidad del viento (km/h) Dirección del viento Racha (km/h) Dirección de racha Precipitación (mm) Presión (hPa) Tendencia (hPa) Humedad (%)
2019-06-25 23:00:00 24.3 9 Sudeste 22 Sudeste 0 -- -- 41
2019-06-25 22:00:00 25.5 6 Sur 19 Este 0 -- -- 39
2019-06-25 21:00:00 27.4 5 Sudeste 14 Oeste 0 -- -- 38
2019-06-25 20:00:00 30.2 5 Noroeste 20 Oeste 0 -- -- 36
2019-06-25 19:00:00 30.1 8 Oeste 28 Sudoeste 0 -- -- 36
2019-06-25 18:00:00 30 19 Oeste 29 Sudoeste 0 -- -- 37
2019-06-25 17:00:00 30.5 18 Oeste 33 Oeste 0 -- -- 36
2019-06-25 16:00:00 31.4 17 Oeste 28 Oeste 0 -- -- 34
2019-06-25 15:00:00 31.2 16 Oeste 27 Oeste 0 -- -- 34
2019-06-25 14:00:00 29.9 14 Oeste 27 Oeste 0 -- -- 35
2019-06-25 13:00:00 28.7 10 Oeste 30 Oeste 0 -- -- 36
2019-06-25 12:00:00 27.1 18 Sudoeste 30 Sudoeste 0 -- -- 35
2019-06-25 11:00:00 26.6 21 Oeste 31 Oeste 0 -- -- 33
2019-06-25 10:00:00 26.1 14 Sudoeste 29 Oeste 0 -- -- 31
2019-06-25 09:00:00 19.3 3 Sudeste 6 Sudeste 0 -- -- 58
2019-06-25 08:00:00 16.4 0 Calma 13 Sudoeste 0 -- -- 59
2019-06-25 07:00:00 17.2 2 Sudoeste 6 Sudeste 0 -- -- 49
2019-06-25 06:00:00 17.7 3 Sur 7 Sur 0 -- -- 47
2019-06-25 05:00:00 18 3 Sudeste 9 Sur 0 -- -- 48
2019-06-25 04:00:00 18.9 4 Sur 14 Sudoeste 0 -- -- 45
2019-06-25 03:00:00 19.5 7 Sudoeste 16 Sudoeste 0 -- -- 42
2019-06-25 02:00:00 18.6 3 Sudeste 13 Sur 0 -- -- 46
2019-06-25 01:00:00 19.2 7 Sudeste 17 Sudeste 0 -- -- 46
2019-06-25 00:00:00 21.9 6 Sur 19 Sudeste 0 -- -- 39
2019-06-24 23:00:00 22 8 Sur 18 Sur 0 -- -- 40
2019-06-24 22:00:00 21.4 6 Sur 17 Sur 0 -- -- 47
2019-06-24 21:00:00 23.4 7 Sur 23 Sudoeste 0 -- -- 40
2019-06-24 20:00:00 25.4 8 Sudoeste 24 Oeste 0 -- -- 36
2019-06-24 19:00:00 25.4 9 Sudoeste 33 Oeste 0 -- -- 37
2019-06-24 18:00:00 26.8 24 Oeste 39 Oeste 0 -- -- 34
2019-06-24 17:00:00 27.3 20 Oeste 33 Oeste 0 -- -- 34
2019-06-24 16:00:00 27.6 21 Oeste 39 Oeste 0 -- -- 32
2019-06-24 15:00:00 27.2 20 Oeste 32 Oeste 0 -- -- 31
2019-06-24 14:00:00 27.3 15 Oeste 32 Oeste 0 -- -- 34
2019-06-24 13:00:00 25.9 13 Oeste 29 Oeste 0 -- -- 31
2019-06-24 12:00:00 25.9 12 Sudoeste 28 Oeste 0 -- -- 32
2019-06-24 11:00:00 24.9 9 Oeste 24 Sudoeste 0 -- -- 31
2019-06-24 10:00:00 21.2 2 Este 6 Oeste 0 -- -- 63
2019-06-24 09:00:00 16.7 0 Calma 10 Sudoeste 0 -- -- 67
2019-06-24 08:00:00 13.7 0 Calma 5 Oeste 0 -- -- 76
2019-06-24 07:00:00 12.8 0 Calma 4 Sudoeste 0 -- -- 82
2019-06-24 06:00:00 13.7 0 Calma 4 Oeste 0 -- -- 80
2019-06-24 05:00:00 14.5 0 Calma 5 Oeste 0 -- -- 77
2019-06-24 04:00:00 15.7 2 Sur 6 Sudoeste 0 -- -- 71
2019-06-24 03:00:00 16.3 2 Este 4 Nordeste 0 -- -- 69
2019-06-24 02:00:00 17 0 Calma 9 Este 0 -- -- 68
2019-06-24 01:00:00 16.9 0 Calma 7 Nordeste 0 -- -- 70
2019-06-24 00:00:00 18.3 3 Sudoeste 13 Este 0 -- -- 66
2019-06-23 23:00:00 19.9 6 Sur 12 Sur 0 -- -- 59
2019-06-23 22:00:00 21 5 Sudeste 14 Sudoeste 0 -- -- 58
2019-06-23 21:00:00 23.6 6 Sur 30 Oeste 0 -- -- 50
2019-06-23 20:00:00 25.8 13 Oeste 24 Oeste 0 -- -- 39
2019-06-23 19:00:00 27.4 17 Oeste 28 Oeste 0 -- -- 37
2019-06-23 18:00:00 27.7 12 Oeste 22 Oeste 0 -- -- 36
2019-06-23 17:00:00 28 7 Noroeste 24 Noroeste 0 -- -- 40
2019-06-23 16:00:00 27.9 6 Norte 18 Nordeste 0 -- -- 36
2019-06-23 15:00:00 27.6 8 Norte 23 Nordeste 0 -- -- 39
2019-06-23 14:00:00 26.8 9 Oeste 22 Nordeste 0 -- -- 38
2019-06-23 13:00:00 25.8 10 Nordeste 26 Nordeste 0 -- -- 45
2019-06-23 12:00:00 24.6 4 Norte 12 Oeste 0 -- -- 50
2019-06-23 11:00:00 22.1 2 Noroeste 7 Oeste 0 -- -- 47
2019-06-23 10:00:00 19.4 0 Calma 3 Oeste 0 -- -- 56
2019-06-23 09:00:00 14.5 0 Calma 2 Este 0 -- -- 83
2019-06-23 08:00:00 12.1 0 Calma 2 Oeste 0 -- -- 86
2019-06-23 07:00:00 11.3 0 Calma 4 Este 0 -- -- 79
2019-06-23 06:00:00 11.2 0 Calma 3 Sudoeste 0 -- -- 78
2019-06-23 05:00:00 11.2 0 Calma 3 Sudeste 0 -- -- 80
2019-06-23 04:00:00 11.5 0 Calma 5 Nordeste 0 -- -- 77
2019-06-23 03:00:00 11.8 0 Calma 4 Este 0 -- -- 77
2019-06-23 02:00:00 12.6 0 Calma 4 Sudoeste 0 -- -- 76
2019-06-23 01:00:00 12.9 0 Calma 8 Nordeste 0 -- -- 75
2019-06-23 00:00:00 13.3 0 Calma 5 Oeste 0 -- -- 75
2019-06-22 23:00:00 14.1 0 Calma 6 Sudeste 0 -- -- 71
2019-06-22 22:00:00 16.4 2 Sudoeste 7 Este 0 -- -- 65
2019-06-22 21:00:00 20.6 6 Este 10 Oeste 0 -- -- 51
2019-06-22 20:00:00 24 5 Nordeste 14 Nordeste 0 -- -- 39
2019-06-22 19:00:00 24 6 Nordeste 18 Nordeste 0 -- -- 34
2019-06-22 18:00:00 23.7 4 Norte 19 Oeste 0 -- -- 40
2019-06-22 17:00:00 23.6 7 Nordeste 19 Norte 0 -- -- 41
2019-06-22 16:00:00 23.1 8 Norte 18 Nordeste 0 -- -- 46
2019-06-22 15:00:00 22.3 5 Este 22 Noroeste 0 -- -- 46
2019-06-22 14:00:00 21.7 5 Nordeste 21 Nordeste 0 -- -- 48
2019-06-22 13:00:00 21.4 9 Nordeste 23 Nordeste 0 -- -- 41
2019-06-22 12:00:00 20 9 Nordeste 23 Nordeste 0 -- -- 49
2019-06-22 11:00:00 18.5 7 Nordeste 28 Este 0 -- -- 55
2019-06-22 10:00:00 15.8 9 Este 16 Este 0 -- -- 71
2019-06-22 09:00:00 10.9 4 Sudeste 9 Sudeste 0 -- -- 100
2019-06-22 08:00:00 9.6 0 Calma 5 Este 0 -- -- 100
2019-06-22 07:00:00 9.7 2 Oeste 8 Este 0 -- -- 100
2019-06-22 06:00:00 10.1 0 Calma 4 Noroeste 0 -- -- 100
2019-06-22 05:00:00 9.7 0 Calma 4 Oeste 0 -- -- 100
2019-06-22 04:00:00 9.9 0 Calma 4 Sudeste 0 -- -- 100
2019-06-22 03:00:00 10.1 2 Sudeste 4 Este 0.2 -- -- 100
2019-06-22 02:00:00 9.6 0 Calma 6 Oeste 0 -- -- 99
2019-06-22 01:00:00 10.1 0 Calma 6 Este 0 -- -- 98
2019-06-22 00:00:00 11.2 4 Este 11 Este 0 -- -- 95
2019-06-21 23:00:00 13.5 6 Sur 13 Sur 0.8 -- -- 91
2019-06-21 22:00:00 13.9 3 Sudeste 5 Este 0 -- -- 89
2019-06-21 21:00:00 16.1 3 Sudoeste 12 Sudoeste 0 -- -- 75
2019-06-21 20:00:00 18.4 8 Oeste 21 Sudoeste 0 -- -- 63
2019-06-21 19:00:00 19.1 11 Oeste 21 Oeste 0 -- -- 60
2019-06-21 18:00:00 18.4 9 Oeste 17 Sudoeste 0 -- -- 63
2019-06-21 17:00:00 17.6 8 Oeste 17 Sudoeste 0 -- -- 73
2019-06-21 16:00:00 16.7 3 Sudoeste 20 Oeste 0 -- -- 78
2019-06-21 15:00:00 16.5 12 Oeste 18 Oeste 0.4 -- -- 79
2019-06-21 14:00:00 14.8 5 Sudoeste 13 Noroeste 1.2 -- -- 92
2019-06-21 13:00:00 14.6 6 Nordeste 14 Sudoeste 0.2 -- -- 91
2019-06-21 12:00:00 14.5 5 Este 17 Nordeste 2.2 -- -- 94
2019-06-21 11:00:00 15.5 4 Noroeste 10 Noroeste 0 -- -- 81
2019-06-21 10:00:00 13.6 5 Oeste 8 Noroeste 0 -- -- 91
2019-06-21 09:00:00 12.1 2 Norte 5 Oeste 0 -- -- 100
2019-06-21 08:00:00 10.7 2 Oeste 5 Oeste 0 -- -- 100
2019-06-21 07:00:00 10.2 2 Nordeste 5 Sur 0 -- -- 100
2019-06-21 06:00:00 10.3 2 Norte 7 Sudeste 0 -- -- 100
2019-06-21 05:00:00 10.3 0 Calma 5 Sudoeste 0 -- -- 100
2019-06-21 04:00:00 9.7 0 Calma 4 Sudoeste 0 -- -- 100
2019-06-21 03:00:00 9.9 2 Este 6 Sur 0 -- -- 100
2019-06-21 02:00:00 10.3 0 Calma 3 Nordeste 0 -- -- 100
2019-06-21 01:00:00 10.2 0 Calma 6 Sudeste 0 -- -- 99
2019-06-21 00:00:00 10.7 3 Este 6 Este 0 -- -- 98
2019-06-20 23:00:00 11 3 Sur 8 Sur 0 -- -- 96
2019-06-20 22:00:00 12.2 5 Sur 30 Norte 7.4 -- -- 90
2019-06-20 21:00:00 15.5 13 Sudoeste 24 Sudoeste 2.6 -- -- 89
2019-06-20 20:00:00 15.9 5 Sudeste 15 Sur 0 -- -- 90
2019-06-20 19:00:00 16.1 5 Sudoeste 17 Sudeste 3.2 -- -- 91
2019-06-20 18:00:00 16.6 4 Sur 39 Sudoeste 2.4 -- -- 84
2019-06-20 17:00:00 21.1 8 Sudoeste 34 Oeste 0.2 -- -- 58
2019-06-20 16:00:00 21.6 7 Oeste 34 Oeste 0 -- -- 52
2019-06-20 15:00:00 22.2 5 Oeste 23 Oeste 0 -- -- 51
2019-06-20 14:00:00 21.9 7 Oeste 24 Oeste 0 -- -- 51
2019-06-20 13:00:00 20.7 5 Nordeste 10 Nordeste 0 -- -- 58
2019-06-20 12:00:00 20.4 4 Norte 13 Oeste 0.2 -- -- 54
2019-06-20 11:00:00 18.2 2 Este 6 Este 0 -- -- 76
2019-06-20 10:00:00 15.2 3 Sur 8 Oeste 0 -- -- 90
2019-06-20 09:00:00 13.3 2 Nordeste 5 Este 0 -- -- 97
2019-06-20 08:00:00 12.5 2 Nordeste 5 Este 0 -- -- 99
2019-06-20 07:00:00 11.6 3 Este 5 Este 0 -- -- 98
2019-06-20 06:00:00 12.2 2 Sudoeste 5 Sudeste 0 -- -- 96
2019-06-20 05:00:00 13.1 2 Sur 10 Sur 0.2 -- -- 93
2019-06-20 04:00:00 13.9 5 Sudoeste 15 Este 2.6 -- -- 87
2019-06-20 03:00:00 15.6 3 Sudeste 5 Sur 0 -- -- 70
2019-06-20 02:00:00 15.2 3 Sudoeste 5 Sudoeste 0 -- -- 66
2019-06-20 01:00:00 14.5 4 Sur 8 Este 0 -- -- 60
2019-06-20 00:00:00 14.7 0 Calma 5 Este 0 -- -- 56
2019-06-19 23:00:00 15.9 0 Calma 6 Este 0 -- -- 52
2019-06-19 22:00:00 17.9 3 Nordeste 7 Este 0 -- -- 47
2019-06-19 21:00:00 22.7 3 Sudoeste 15 Nordeste 0 -- -- 36
2019-06-19 20:00:00 24.5 8 Nordeste 24 Sudoeste 0 -- -- 32
2019-06-19 19:00:00 24.9 12 Sudoeste 27 Sudoeste 0 -- -- 26
2019-06-19 18:00:00 24.9 15 Oeste 32 Sudoeste 0 -- -- 25
2019-06-19 17:00:00 24.5 14 Sudoeste 31 Oeste 0 -- -- 27
2019-06-19 16:00:00 24.9 5 Norte 30 Oeste 0 -- -- 26
2019-06-19 15:00:00 25.3 15 Oeste -- -- -- -- -- 25
2019-06-19 14:00:00 25.3 14 Oeste 32 Oeste 0 -- -- 25
2019-06-19 13:00:00 24.9 8 Noroeste -- -- -- -- -- 29
2019-06-19 12:00:00 -- -- -- -- -- -- -- -- --
2019-06-19 11:00:00 -- -- -- -- -- -- -- -- --
2019-06-19 10:00:00 18.7 2 Este 4 Sudeste 0 -- -- 45
2019-06-19 09:00:00 11.9 0 Calma 4 Sudeste 0 -- -- 68
2019-06-19 08:00:00 9.9 0 Calma 3 Sur 0 -- -- 69
2019-06-19 07:00:00 9.5 0 Calma 4 Oeste 0 -- -- 62
2019-06-19 06:00:00 10.2 0 Calma 4 Este 0 -- -- 56
2019-06-19 05:00:00 10.6 0 Calma 9 Sur 0 -- -- 55
2019-06-19 04:00:00 11.8 0 Calma 6 Este 0 -- -- 50
2019-06-19 03:00:00 12.6 3 Sudoeste 6 Sudeste 0 -- -- 48
2019-06-19 02:00:00 13.3 3 Este 11 Sudoeste 0 -- -- 49
2019-06-19 01:00:00 14 4 Sudeste 7 Sudeste 0 -- -- 49
2019-06-19 00:00:00 15.4 3 Sudoeste 12 Sudeste 0 -- -- 46
2019-06-18 23:00:00 18.2 6 Sur 21 Sudeste 0 -- -- 37
2019-06-18 22:00:00 18.1 6 Sudeste 13 Sudeste 0 -- -- 42
2019-06-18 21:00:00 21.1 2 Noroeste 32 Sudoeste 0 -- -- 44
2019-06-18 20:00:00 23.1 20 Oeste 33 Oeste 0 -- -- 39
2019-06-18 19:00:00 24.8 17 Oeste 39 Oeste 0 -- -- 37
2019-06-18 18:00:00 25.3 18 Oeste 35 Noroeste 0 -- -- 35
2019-06-18 17:00:00 24.2 6 Sudoeste 30 Sudoeste 0 -- -- 37
2019-06-18 16:00:00 26.3 13 Sudoeste 41 Oeste 0 -- -- 32
2019-06-18 15:00:00 26.2 13 Oeste 28 Sudoeste 0 -- -- 33
2019-06-18 14:00:00 25.1 14 Oeste 31 Oeste 0 -- -- 36
2019-06-18 13:00:00 25.2 15 Oeste 24 Oeste 0 -- -- 37
2019-06-18 12:00:00 23.1 3 Sudeste 9 Nordeste 0 -- -- 36
2019-06-18 11:00:00 22.6 4 Norte 12 Noroeste 0 -- -- 44
2019-06-18 10:00:00 19.2 2 Oeste 6 Sur 0 -- -- 53
2019-06-18 09:00:00 15.1 4 Sudoeste 6 Sudoeste 0 -- -- 71
2019-06-18 08:00:00 13.3 3 Sudoeste 5 Sudoeste 0 -- -- 76
2019-06-18 07:00:00 11.9 0 Calma 5 Oeste 0 -- -- 80
2019-06-18 06:00:00 11.8 0 Calma 4 Oeste 0 -- -- 79
2019-06-18 05:00:00 11.8 0 Calma 3 Oeste 0 -- -- 80
2019-06-18 04:00:00 11.7 0 Calma 4 Este 0 -- -- 80
2019-06-18 03:00:00 12.5 0 Calma 4 Este 0 -- -- 76
2019-06-18 02:00:00 14.1 3 Sur 4 Sudoeste 0 -- -- 73
2019-06-18 01:00:00 14.3 2 Sur 8 Sudeste 0 -- -- 72
2019-06-18 00:00:00 15 2 Sur 6 Sudeste 0 -- -- 70
2019-06-17 23:00:00 15.9 3 Sur 10 Sur 0 -- -- 67
2019-06-17 22:00:00 18.4 7 Sur 26 Sudoeste 0 -- -- 59
2019-06-17 21:00:00 20.6 16 Sudoeste 33 Sudoeste 0 -- -- 52
2019-06-17 20:00:00 22.6 22 Oeste 40 Noroeste 0 -- -- 47
2019-06-17 19:00:00 24.9 8 Oeste 19 Oeste 0 -- -- 31
2019-06-17 18:00:00 22.8 12 Oeste 30 Oeste 0 -- -- 33
2019-06-17 17:00:00 24 8 Oeste 29 Oeste 0 -- -- 36
2019-06-17 16:00:00 24.9 13 Oeste 29 Sudoeste 0 -- -- 34
2019-06-17 15:00:00 24.9 15 Sudoeste 28 Oeste 0 -- -- 37
2019-06-17 14:00:00 25.1 13 Oeste 21 Oeste 0 -- -- 40
2019-06-17 13:00:00 24.2 5 Norte 15 Oeste 0 -- -- 35
2019-06-17 12:00:00 22.8 5 Noroeste 13 Noroeste 0 -- -- 42
2019-06-17 11:00:00 20.8 5 Norte 10 Nordeste 0 -- -- 43
2019-06-17 10:00:00 17.5 0 Calma 3 Sudeste 0 -- -- 57
2019-06-17 09:00:00 11 0 Calma 4 Sudeste 0 -- -- 82
2019-06-17 08:00:00 9.2 0 Calma 4 Este 0 -- -- 85
2019-06-17 07:00:00 8.5 2 Sudoeste 4 Sur 0 -- -- 85
2019-06-17 06:00:00 8.8 0 Calma 3 Nordeste 0 -- -- 85
2019-06-17 05:00:00 9.1 0 Calma 3 Sudeste 0 -- -- 84
2019-06-17 04:00:00 9.7 0 Calma 4 Sur 0 -- -- 82
2019-06-17 03:00:00 10.3 0 Calma 4 Sudeste 0 -- -- 80
2019-06-17 02:00:00 11.3 0 Calma 3 Oeste 0 -- -- 76
2019-06-17 01:00:00 12.3 0 Calma 4 Sudeste 0 -- -- 72
2019-06-17 00:00:00 13.4 0 Calma 6 Oeste 0 -- -- 68
2019-06-16 23:00:00 14.1 3 Sudeste 6 Sudeste 0 -- -- 66
2019-06-16 22:00:00 15.8 2 Sudeste 6 Sudeste 0 -- -- 61
2019-06-16 21:00:00 19.2 3 Este 19 Oeste 0 -- -- 52
2019-06-16 20:00:00 21.2 14 Oeste 29 Oeste 0 -- -- 45
2019-06-16 19:00:00 22.4 16 Oeste 27 Oeste 0 -- -- 44
2019-06-16 18:00:00 23.1 10 Oeste 18 Norte 0 -- -- 44
2019-06-16 17:00:00 23.6 5 Norte 19 Norte 0 -- -- 35
2019-06-16 16:00:00 23.1 7 Norte 22 Norte 0 -- -- 38
2019-06-16 15:00:00 -- -- -- -- -- -- -- -- --
2019-06-16 14:00:00 -- -- -- -- -- -- -- -- --
2019-06-16 13:00:00 20.9 6 Nordeste 17 Norte 0 -- -- 42
2019-06-16 12:00:00 19.8 6 Norte 18 Nordeste 0 -- -- 44
2019-06-16 11:00:00 18.2 4 Norte 10 Nordeste 0 -- -- 43
2019-06-16 10:00:00 15.2 3 Sur 4 Sur 0 -- -- 54
2019-06-16 09:00:00 8.4 3 Sudeste 7 Sudeste 0 -- -- 89
2019-06-16 08:00:00 5.8 0 Calma 3 Sudoeste 0 -- -- 93
2019-06-16 07:00:00 5.6 0 Calma 3 Oeste 0 -- -- 88
2019-06-16 06:00:00 5.6 2 Sudoeste 4 Oeste 0 -- -- 86
2019-06-16 05:00:00 6.2 0 Calma 4 Este 0 -- -- 83
2019-06-16 04:00:00 6.9 3 Este 4 Este 0 -- -- 79
2019-06-16 03:00:00 7.7 0 Calma 4 Sudeste 0 -- -- 75
2019-06-16 02:00:00 8.4 2 Sudoeste 5 Este 0 -- -- 72
2019-06-16 01:00:00 8.9 2 Este 5 Sudeste 0 -- -- 71
2019-06-16 00:00:00 10.1 2 Nordeste 8 Este 0 -- -- 69
2019-06-15 23:00:00 11.1 4 Sudeste 8 Sudeste 0 -- -- 67
2019-06-15 22:00:00 13.6 0 Calma 9 Este 0 -- -- 57
2019-06-15 21:00:00 18.2 4 Oeste 18 Nordeste 0 -- -- 44
2019-06-15 20:00:00 20.1 8 Nordeste 18 Nordeste 0 -- -- 39
2019-06-15 19:00:00 21.2 9 Nordeste 22 Sudoeste 0 -- -- 39
2019-06-15 18:00:00 20.8 14 Oeste 26 Sudoeste 0 -- -- 43
2019-06-15 17:00:00 20.8 15 Oeste 29 Oeste 0 -- -- 45
2019-06-15 16:00:00 20.5 11 Oeste 28 Oeste 0 -- -- 39
2019-06-15 15:00:00 20.7 18 Oeste 32 Oeste 0 -- -- 38
2019-06-15 14:00:00 20.6 13 Sudoeste 29 Oeste 0 -- -- 41
2019-06-15 13:00:00 20.6 11 Sudoeste 31 Oeste 0 -- -- 39
2019-06-15 12:00:00 20 6 Noroeste 18 Sudoeste 0 -- -- 44
2019-06-15 11:00:00 18.7 4 Oeste 15 Nordeste 0 -- -- 44
2019-06-15 10:00:00 16.4 6 Nordeste 10 Nordeste 0 -- -- 56
2019-06-15 09:00:00 12.9 0 Calma 8 Nordeste 0 -- -- 85
2019-06-15 08:00:00 11 2 Este 4 Este 0 -- -- 93
2019-06-15 07:00:00 10.3 2 Sudoeste 10 Sudeste 0 -- -- 88
2019-06-15 06:00:00 11.1 3 Este 12 Este 0 -- -- 83
2019-06-15 05:00:00 11.9 3 Sudeste 11 Sur 0 -- -- 80
2019-06-15 04:00:00 13 4 Sur 13 Sur 0 -- -- 75
2019-06-15 03:00:00 12.9 3 Sur 9 Sur 0 -- -- 77
2019-06-15 02:00:00 13.4 5 Sur 10 Sur 0 -- -- 79
2019-06-15 01:00:00 12.2 4 Sur 9 Sur 0 -- -- 81
2019-06-15 00:00:00 11.6 3 Sur 7 Este 0 -- -- 80
2019-06-14 23:00:00 12.7 0 Calma 5 Sudeste 0 -- -- 78
2019-06-14 22:00:00 14.4 0 Calma 5 Sudeste 0 -- -- 73
2019-06-14 21:00:00 19.1 3 Nordeste 13 Oeste 0 -- -- 55
2019-06-14 20:00:00 20.4 6 Noroeste 23 Nordeste 0 -- -- 50
2019-06-14 19:00:00 20.7 8 Noroeste 24 Nordeste 0 -- -- 52
2019-06-14 18:00:00 20.7 5 Norte 13 Noroeste 0 -- -- 56
2019-06-14 17:00:00 18.1 4 Nordeste 25 Nordeste 0 -- -- 67
2019-06-14 16:00:00 19.9 12 Oeste 34 Oeste 0 -- -- 59
2019-06-14 15:00:00 20.5 21 Oeste 32 Oeste 0 -- -- 60
2019-06-14 14:00:00 17.6 3 Sur 17 Sur 0.2 -- -- 68
2019-06-14 13:00:00 19.8 8 Nordeste 24 Nordeste 0 -- -- 57
2019-06-14 12:00:00 17.8 11 Nordeste 19 Nordeste 0 -- -- 59
2019-06-14 11:00:00 15.4 5 Sudoeste 16 Sudoeste 0 -- -- 78
2019-06-14 10:00:00 13.6 10 Este 19 Este 0 -- -- 91
2019-06-14 09:00:00 11.9 5 Sur 15 Sudoeste 0.2 -- -- 95
2019-06-14 08:00:00 11.2 4 Norte 12 Sur 0.4 -- -- 90
2019-06-14 07:00:00 11.1 5 Sur 10 Sudoeste 1 -- -- 92
2019-06-14 06:00:00 11.6 6 Sur 14 Sur 0.2 -- -- 82
2019-06-14 05:00:00 12 4 Sudeste 9 Sudeste 0 -- -- 72
2019-06-14 04:00:00 12.7 5 Sudoeste 12 Oeste 0 -- -- 69
2019-06-14 03:00:00 12.6 3 Sur 8 Sur 0 -- -- 63
2019-06-14 02:00:00 12.3 2 Sudoeste 9 Sudoeste 0 -- -- 65
2019-06-14 01:00:00 13.4 2 Este 24 Este 0 -- -- 64
2019-06-14 00:00:00 13.8 2 Nordeste 15 Sur 0 -- -- 64
2019-06-13 23:00:00 14.6 6 Este 21 Sudoeste 0 -- -- 60
2019-06-13 22:00:00 15.4 10 Sudoeste 17 Sur 0 -- -- 59
2019-06-13 21:00:00 16.8 6 Sur 16 Sur 0 -- -- 54
2019-06-13 20:00:00 18.1 13 Sudoeste 29 Oeste 0 -- -- 49
2019-06-13 19:00:00 19.2 13 Sudoeste 23 Oeste 0 -- -- 45
2019-06-13 18:00:00 18.9 13 Oeste 28 Oeste 0 -- -- 41
2019-06-13 17:00:00 19.5 17 Oeste 30 Sudoeste 0 -- -- 40
2019-06-13 16:00:00 20.7 18 Oeste 35 Oeste 0 -- -- 37
2019-06-13 15:00:00 20.2 14 Oeste 29 Sudoeste 0 -- -- 42
2019-06-13 14:00:00 19.3 14 Oeste 29 Sudoeste 0 -- -- 35
2019-06-13 13:00:00 18.8 11 Sudoeste 27 Sudoeste 0 -- -- 37
2019-06-13 12:00:00 17.7 13 Sudoeste 31 Sudoeste 0 -- -- 38
2019-06-13 11:00:00 16.2 10 Sudoeste 30 Oeste 0 -- -- 42
2019-06-13 10:00:00 12.7 4 Sur 9 Sudeste 0 -- -- 60
2019-06-13 09:00:00 6.4 3 Sur 6 Este 0 -- -- 78
2019-06-13 08:00:00 4.5 2 Sudeste 5 Sudeste 0 -- -- 86
2019-06-13 07:00:00 3.1 0 Calma 5 Sur 0 -- -- 89
2019-06-13 06:00:00 3.1 3 Sudoeste 6 Este 0 -- -- 88
2019-06-13 05:00:00 3.6 0 Calma 4 Oeste 0 -- -- 87
2019-06-13 04:00:00 3.9 2 Sudeste 4 Sudoeste 0 -- -- 84
2019-06-13 03:00:00 4.6 2 Nordeste 7 Este 0 -- -- 82
2019-06-13 02:00:00 4.9 0 Calma 4 Este 0 -- -- 80
2019-06-13 01:00:00 5.5 3 Este 8 Este 0 -- -- 78
2019-06-13 00:00:00 6.2 3 Sudoeste 8 Nordeste 0 -- -- 76
2019-06-12 23:00:00 7.2 0 Calma 7 Este 0 -- -- 74
2019-06-12 22:00:00 8.9 0 Calma 5 Este 0 -- -- 66
2019-06-12 21:00:00 13.4 3 Noroeste 16 Oeste 0 -- -- 49
2019-06-12 20:00:00 15.4 4 Este 13 Nordeste 0 -- -- 42
2019-06-12 19:00:00 15.3 4 Noroeste 19 Este 0 -- -- 41
2019-06-12 18:00:00 15.8 7 Noroeste 25 Oeste 0 -- -- 43
2019-06-12 17:00:00 15.6 6 Norte 24 Nordeste 0 -- -- 42
2019-06-12 16:00:00 15.4 9 Norte 24 Nordeste 0 -- -- 39
2019-06-12 15:00:00 15 10 Nordeste 35 Nordeste 0 -- -- 37
2019-06-12 14:00:00 13.9 8 Norte 22 Nordeste 0 -- -- 44
2019-06-12 13:00:00 12.4 10 Nordeste 30 Nordeste 0 -- -- 54
2019-06-12 12:00:00 12.4 7 Norte 27 Nordeste 0 -- -- 47
2019-06-12 11:00:00 10.9 7 Nordeste 22 Nordeste 0 -- -- 56
2019-06-12 10:00:00 7.9 0 Calma 5 Este 0 -- -- 88
2019-06-12 09:00:00 2.5 3 Sudeste 6 Sudeste 0 -- -- 100
2019-06-12 08:00:00 0.8 0 Calma 4 Nordeste 0 -- -- 100
2019-06-12 07:00:00 0.1 0 Calma 4 Sudoeste 0 -- -- 100
2019-06-12 06:00:00 0.2 0 Calma 5 Este 0 -- -- 100
2019-06-12 05:00:00 0.4 0 Calma 4 Este 0 -- -- 100
2019-06-12 04:00:00 0.8 0 Calma 4 Sur 0 -- -- 100
2019-06-12 03:00:00 1.2 0 Calma 5 Sudeste 0 -- -- 99
2019-06-12 02:00:00 1.7 0 Calma 4 Sudoeste 0 -- -- 99
2019-06-12 01:00:00 2.1 0 Calma 4 Sur 0 -- -- 98
2019-06-12 00:00:00 3 2 Sur 5 Sur 0 -- -- 97
2019-06-11 23:00:00 4.7 2 Sudoeste 12 Este 0 -- -- 97
2019-06-11 22:00:00 5.1 5 Sudeste 10 Este 0 -- -- 96
2019-06-11 21:00:00 7.1 0 Calma 8 Noroeste 0 -- -- 88
2019-06-11 20:00:00 6.6 3 Sudeste 23 Nordeste 2.2 -- -- 93
2019-06-11 19:00:00 8.7 5 Nordeste 18 Nordeste 0.2 -- -- 83
2019-06-11 18:00:00 9.6 5 Nordeste 11 Nordeste 0 -- -- 82
2019-06-11 17:00:00 10.3 5 Nordeste 12 Nordeste 0 -- -- 78
2019-06-11 16:00:00 10.4 5 Norte 11 Noroeste 0 -- -- 77
2019-06-11 15:00:00 8.6 4 Sudoeste 11 Oeste 0 -- -- 86
2019-06-11 14:00:00 7.9 4 Oeste 14 Este 0.2 -- -- 88
2019-06-11 13:00:00 7.2 8 Este 15 Nordeste 2 -- -- 90
2019-06-11 12:00:00 7.2 9 Nordeste 16 Nordeste 1.4 -- -- 89
2019-06-11 11:00:00 7.5 3 Este 6 Este 2.2 -- -- 98
2019-06-11 10:00:00 7.1 0 Calma 5 Este 2.8 -- -- 98
2019-06-11 09:00:00 6.8 3 Sudoeste 7 Nordeste 3 -- -- 98
2019-06-11 08:00:00 6.4 4 Nordeste 10 Nordeste 5.2 -- -- 97
2019-06-11 07:00:00 6.5 5 Este 10 Noroeste 3.6 -- -- 95
2019-06-11 06:00:00 6.9 0 Calma 5 Sudeste 1.2 -- -- 93
2019-06-11 05:00:00 7.4 4 Sudeste 17 Nordeste 1.2 -- -- 88
2019-06-11 04:00:00 9.9 5 Sudoeste 15 Este 0.2 -- -- 60
2019-06-11 03:00:00 11.2 2 Sudeste 18 Nordeste 0 -- -- 48
2019-06-11 02:00:00 10.8 3 Sur 22 Sudoeste 0 -- -- 57
2019-06-11 01:00:00 12.3 13 Sudoeste 21 Sudoeste 0 -- -- 49
2019-06-11 00:00:00 10.9 2 Este 12 Sur 0 -- -- 57
2019-06-10 23:00:00 12.7 2 Sur 12 Sur 0 -- -- 54
2019-06-10 22:00:00 13.9 6 Oeste 20 Sudoeste 0 -- -- 51
2019-06-10 21:00:00 15.9 5 Sudoeste 21 Oeste 0 -- -- 48
2019-06-10 20:00:00 17 12 Oeste 28 Nordeste 0 -- -- 52
2019-06-10 19:00:00 17.8 8 Nordeste 27 Nordeste 0 -- -- 51
2019-06-10 18:00:00 18.4 9 Nordeste 26 Noroeste 0 -- -- 51
2019-06-10 17:00:00 18.8 14 Nordeste 24 Nordeste 0 -- -- 49
2019-06-10 16:00:00 19.3 9 Sudoeste 26 Sudoeste 0 -- -- 53
2019-06-10 15:00:00 18.4 7 Sudoeste 22 Noroeste 0 -- -- 54
2019-06-10 14:00:00 17.2 11 Oeste 24 Oeste 0 -- -- 59
2019-06-10 13:00:00 16.6 10 Oeste 24 Oeste 0 -- -- 59
2019-06-10 12:00:00 16.5 5 Noroeste 15 Noroeste 0 -- -- 72
2019-06-10 11:00:00 14.6 11 Este 17 Este 0 -- -- 80
2019-06-10 10:00:00 11.6 12 Sudeste 29 Nordeste 3.8 -- -- 82
2019-06-10 09:00:00 12.3 2 Nordeste 5 Nordeste 0 -- -- 78
2019-06-10 08:00:00 10.3 0 Calma 5 Noroeste 0 -- -- 86
2019-06-10 07:00:00 9.4 0 Calma 4 Nordeste 0 -- -- 86
2019-06-10 06:00:00 9.5 2 Sur 8 Nordeste 0 -- -- 84
2019-06-10 05:00:00 10.1 0 Calma 3 Nordeste 0 -- -- 81
2019-06-10 04:00:00 10.1 0 Calma 4 Este 0 -- -- 80
2019-06-10 03:00:00 10.5 0 Calma 3 Sudeste 0 -- -- 78
2019-06-10 02:00:00 11.5 0 Calma 5 Este 0 -- -- 75
2019-06-10 01:00:00 12.6 2 Sur 5 Este 0 -- -- 70
2019-06-10 00:00:00 13.3 0 Calma 4 Sudeste 0 -- -- 69
2019-06-09 23:00:00 13.7 0 Calma 8 Nordeste 0 -- -- 66
2019-06-09 22:00:00 15.1 0 Calma 8 Sudoeste 0 -- -- 63
2019-06-09 21:00:00 18.6 5 Sur 12 Noroeste 0 -- -- 51
2019-06-09 20:00:00 20.3 8 Oeste 23 Sudoeste 0 -- -- 46
2019-06-09 19:00:00 21.8 8 Oeste 26 Sur 0 -- -- 43
2019-06-09 18:00:00 22.7 3 Noroeste 11 Nordeste 0 -- -- 40
2019-06-09 17:00:00 21.8 5 Norte 13 Nordeste 0 -- -- 41
2019-06-09 16:00:00 21.9 7 Oeste 17 Oeste 0 -- -- 40
2019-06-09 15:00:00 21.3 3 Norte 21 Oeste 0 -- -- 40
2019-06-09 14:00:00 19.8 12 Oeste 28 Oeste 0 -- -- 42
2019-06-09 13:00:00 19.9 16 Oeste 24 Oeste 0 -- -- 39
2019-06-09 12:00:00 19.2 13 Oeste 26 Oeste 0 -- -- 43
2019-06-09 11:00:00 19.1 5 Oeste 12 Noroeste 0 -- -- 45
2019-06-09 10:00:00 16 3 Noroeste 15 Sudoeste 0 -- -- 60
2019-06-09 09:00:00 13.1 5 Sudeste 12 Este 0 -- -- 67
2019-06-09 08:00:00 12.1 5 Nordeste 15 Oeste 0 -- -- 69
2019-06-09 07:00:00 11.5 2 Oeste 6 Oeste 0 -- -- 73
2019-06-09 06:00:00 11.3 4 Nordeste 6 Nordeste 0 -- -- 73
2019-06-09 05:00:00 11.7 0 Calma 5 Este 0 -- -- 70
2019-06-09 04:00:00 12.7 2 Sudoeste 6 Oeste 0 -- -- 59
2019-06-09 03:00:00 13.6 3 Sur 17 Sur 0 -- -- 53
2019-06-09 02:00:00 14 8 Sur 15 Sur 0 -- -- 53
2019-06-09 01:00:00 11.7 0 Calma 6 Sur 0 -- -- 68
2019-06-09 00:00:00 12 3 Sur 6 Sur 0 -- -- 69
2019-06-08 23:00:00 13.4 3 Noroeste 19 Sudoeste 0 -- -- 63
2019-06-08 22:00:00 14.4 10 Sudoeste 20 Sur 0 -- -- 61
2019-06-08 21:00:00 15.9 10 Sudoeste 27 Sudoeste 0 -- -- 59
2019-06-08 20:00:00 17.8 17 Sudoeste 33 Oeste 0 -- -- 53
2019-06-08 19:00:00 19.6 21 Sudoeste 32 Oeste 0 -- -- 45
2019-06-08 18:00:00 21.2 17 Oeste 30 Oeste 0 -- -- 37
2019-06-08 17:00:00 21.5 18 Sudoeste 34 Oeste 0 -- -- 35
2019-06-08 16:00:00 21.6 18 Oeste 27 Noroeste 0 -- -- 37
2019-06-08 15:00:00 21 6 Norte 21 Nordeste 0 -- -- 34
2019-06-08 14:00:00 21 10 Nordeste 25 Nordeste 0 -- -- 33
2019-06-08 13:00:00 19.6 9 Nordeste 23 Nordeste 0 -- -- 33
2019-06-08 12:00:00 18.4 5 Norte 12 Norte 0 -- -- 37
2019-06-08 11:00:00 16.2 3 Norte 10 Noroeste 0 -- -- 35
2019-06-08 10:00:00 13.3 3 Oeste 6 Oeste 0 -- -- 42
2019-06-08 09:00:00 6.6 0 Calma 4 Sudeste 0 -- -- 70
2019-06-08 08:00:00 4.7 0 Calma 6 Sur 0 -- -- 71
2019-06-08 07:00:00 4 3 Sudoeste 8 Este 0 -- -- 69
2019-06-08 06:00:00 4.2 0 Calma 8 Oeste 0 -- -- 69
2019-06-08 05:00:00 4.4 2 Sudoeste 9 Oeste 0 -- -- 71
2019-06-08 04:00:00 5.2 2 Sudeste 6 Este 0 -- -- 68
2019-06-08 03:00:00 5.3 2 Sur 8 Oeste 0 -- -- 67
2019-06-08 02:00:00 5.8 0 Calma 5 Este 0 -- -- 65
2019-06-08 01:00:00 6.6 3 Sudeste 5 Sudeste 0 -- -- 58
2019-06-08 00:00:00 7.6 3 Sudeste 12 Este 0 -- -- 57
2019-06-07 23:00:00 8.8 5 Este 12 Este 0 -- -- 50
2019-06-07 22:00:00 10.4 2 Sudeste 10 Sudoeste 0 -- -- 47
2019-06-07 21:00:00 15.3 4 Oeste 23 Sudoeste 0 -- -- 35
2019-06-07 20:00:00 17.9 14 Oeste 24 Sudoeste 0 -- -- 26
2019-06-07 19:00:00 19.3 7 Norte 23 Nordeste 0 -- -- 25
2019-06-07 18:00:00 18.9 8 Norte 26 Norte 0 -- -- 26
2019-06-07 17:00:00 19 6 Norte 23 Nordeste 0 -- -- 34
2019-06-07 16:00:00 19.1 7 Nordeste 31 Norte 0 -- -- 35
2019-06-07 15:00:00 18 8 Nordeste 24 Nordeste 0 -- -- 47
2019-06-07 14:00:00 16.6 9 Oeste 30 Nordeste 0 -- -- 54
2019-06-07 13:00:00 15.1 8 Norte 33 Norte 0 -- -- 61
2019-06-07 12:00:00 16 8 Nordeste 31 Nordeste 0 -- -- 57
2019-06-07 11:00:00 15.4 11 Nordeste 32 Nordeste 0 -- -- 56
2019-06-07 10:00:00 13.6 4 Sudoeste 11 Sur 0 -- -- 63
2019-06-07 09:00:00 8.7 3 Sur 8 Sur 0 -- -- 83
2019-06-07 08:00:00 7.5 4 Sudoeste 9 Sur 0 -- -- 82
2019-06-07 07:00:00 7.2 5 Sur 10 Sudoeste 0 -- -- 80
2019-06-07 06:00:00 8 4 Sudeste 17 Sudoeste 0 -- -- 72
2019-06-07 05:00:00 7.8 5 Este 13 Oeste 0 -- -- 70
2019-06-07 04:00:00 9.8 4 Sur 20 Sur 0 -- -- 65
2019-06-07 03:00:00 11.5 11 Sur 31 Sur 0 -- -- 58
2019-06-07 02:00:00 11.7 13 Sudoeste 30 Sur 0 -- -- 50
2019-06-07 01:00:00 11.8 12 Sur 38 Sur 0 -- -- 50
2019-06-07 00:00:00 11.6 13 Sudeste 37 Este 0 -- -- 53
2019-06-06 23:00:00 11.3 9 Este 27 Este 0 -- -- 56
2019-06-06 22:00:00 11.8 11 Sudeste 31 Oeste 0 -- -- 56
2019-06-06 21:00:00 13 10 Sur 24 Sudoeste 0 -- -- 61
2019-06-06 20:00:00 13.9 6 Sur 31 Sur 0 -- -- 57
2019-06-06 19:00:00 15.8 12 Sudoeste 24 Sudoeste 0 -- -- 49
2019-06-06 18:00:00 14.4 4 Nordeste 12 Norte 0 -- -- 57
2019-06-06 17:00:00 14 8 Sudoeste 31 Oeste 0 -- -- 63
2019-06-06 16:00:00 16 21 Oeste 41 Oeste 0 -- -- 54
2019-06-06 15:00:00 16.9 7 Noroeste 30 Oeste 0 -- -- 42
2019-06-06 14:00:00 15.6 12 Sudoeste 32 Oeste 0 -- -- 48
2019-06-06 13:00:00 15.1 17 Sudoeste 29 Sudoeste 0 -- -- 51
2019-06-06 12:00:00 14.3 7 Oeste 19 Sudoeste 0 -- -- 52
2019-06-06 11:00:00 14.2 6 Nordeste 21 Nordeste 0 -- -- 49
2019-06-06 10:00:00 12.5 4 Este 8 Este 0 -- -- 58
2019-06-06 09:00:00 5.9 0 Calma 4 Sudeste 0 -- -- 93
2019-06-06 08:00:00 4 0 Calma 3 Sudoeste 0 -- -- 96
2019-06-06 07:00:00 3.4 2 Sur 4 Este 0 -- -- 95
2019-06-06 06:00:00 -- 2 Sudeste 5 Sudeste 0 -- -- --
2019-06-06 05:00:00 3.9 0 Calma 4 Sudoeste 0 -- -- 92
2019-06-06 04:00:00 4.5 0 Calma 4 Nordeste 0 -- -- 90
2019-06-06 03:00:00 4.9 0 Calma 8 Sudoeste 0 -- -- 90
2019-06-06 02:00:00 5.5 3 Sudeste 6 Este 0 -- -- 90
2019-06-06 01:00:00 4.9 3 Sudeste 7 Este 0 -- -- 86
2019-06-06 00:00:00 5.9 0 Calma 10 Este 0 -- -- 83
2019-06-05 23:00:00 7.1 6 Sudoeste 12 Sudoeste 0 -- -- 78
2019-06-05 22:00:00 9 3 Sudeste 12 Oeste 0 -- -- 70
2019-06-05 21:00:00 13 6 Nordeste 19 Norte 0 -- -- 53
2019-06-05 20:00:00 13.6 4 Sudeste 11 Noroeste 0 -- -- 65
2019-06-05 19:00:00 15.1 3 Norte 19 Nordeste 0 -- -- 56
2019-06-05 18:00:00 14.9 6 Este 15 Nordeste 0 -- -- 59
2019-06-05 17:00:00 12.7 4 Sudoeste 23 Sudeste 0 -- -- 74
2019-06-05 16:00:00 11.5 12 Este 26 Nordeste 2 -- -- 77
2019-06-05 15:00:00 13 11 Nordeste 22 Este 0 -- -- 74
2019-06-05 14:00:00 13.6 7 Sudoeste 34 Sur 1.2 -- -- 74
2019-06-05 13:00:00 15.6 14 Oeste 33 Sudoeste 0 -- -- 50
2019-06-05 12:00:00 18.3 7 Noroeste 33 Oeste 0 -- -- 39
2019-06-05 11:00:00 18.8 10 Oeste 31 Sudoeste 0 -- -- 33
2019-06-05 10:00:00 18.1 11 Sudoeste 20 Sudoeste 0 -- -- 29
2019-06-05 09:00:00 15.1 8 Oeste 15 Oeste 0 -- -- 36
2019-06-05 08:00:00 13 5 Sur 17 Sudoeste 0 -- -- 40
2019-06-05 07:00:00 11.5 4 Sudeste 10 Sudeste 0 -- -- 38
2019-06-05 06:00:00 11.9 4 Sudoeste 11 Sudoeste 0 -- -- 40
2019-06-05 05:00:00 14.4 5 Sudoeste 12 Oeste 0 -- -- 33
2019-06-05 04:00:00 17.5 9 Sur 23 Sur 0 -- -- 22
2019-06-05 03:00:00 17.7 9 Sudoeste 22 Sudoeste 0 -- -- 22
2019-06-05 02:00:00 18.1 9 Sudoeste 23 Sur 0 -- -- 28
2019-06-05 01:00:00 17 5 Sudoeste 19 Sudoeste 0 -- -- 34
2019-06-05 00:00:00 15.4 5 Sudoeste 20 Sudoeste 0 -- -- 39
2019-06-04 23:00:00 15.7 5 Sudoeste 20 Sudoeste 0 -- -- 40
2019-06-04 22:00:00 15.3 3 Sur 20 Sudoeste 0 -- -- 51
2019-06-04 21:00:00 18.4 10 Sudoeste 29 Oeste 0 -- -- 47
2019-06-04 20:00:00 21.5 19 Oeste 32 Oeste 0 -- -- 41
2019-06-04 19:00:00 23.3 20 Oeste 31 Sudoeste 0 -- -- 40
2019-06-04 18:00:00 24 23 Oeste 34 Oeste 0 -- -- 39
2019-06-04 17:00:00 24.4 24 Oeste 37 Noroeste 0 -- -- 39
2019-06-04 16:00:00 24.7 23 Oeste 39 Oeste 0 -- -- 37
2019-06-04 15:00:00 24.3 21 Oeste 37 Oeste 0 -- -- 38
2019-06-04 14:00:00 24.1 20 Oeste 36 Oeste 0 -- -- 36
2019-06-04 13:00:00 24.3 16 Oeste 35 Oeste 0 -- -- 34
2019-06-04 12:00:00 22.5 25 Oeste 38 Sudoeste 0 -- -- 36
2019-06-04 11:00:00 21.9 3 Norte 8 Noroeste 0 -- -- 45
2019-06-04 10:00:00 18.1 2 Noroeste 8 Oeste 0 -- -- 51
2019-06-04 09:00:00 12.6 2 Sudeste 5 Este 0 -- -- 77
2019-06-04 08:00:00 10.2 0 Calma 4 Este 0 -- -- 77
2019-06-04 07:00:00 10.4 0 Calma 6 Sur 0 -- -- 72
2019-06-04 06:00:00 10 0 Calma 4 Este 0 -- -- 74
2019-06-04 05:00:00 10.2 2 Nordeste 7 Este 0 -- -- 74
2019-06-04 04:00:00 11.3 0 Calma 5 Sudeste 0 -- -- 70
2019-06-04 03:00:00 11.5 0 Calma 3 Noroeste 0 -- -- 69
2019-06-04 02:00:00 11.5 0 Calma 4 Oeste 0 -- -- 69
2019-06-04 01:00:00 12.5 0 Calma 6 Este 0 -- -- 66
2019-06-04 00:00:00 13.1 0 Calma 5 Este 0 -- -- 65
2019-06-03 23:00:00 13.8 0 Calma 5 Este 0 -- -- 65
2019-06-03 22:00:00 15.5 4 Sudeste 8 Sur 0 -- -- 61
2019-06-03 21:00:00 19.7 7 Sur 20 Sudoeste 0 -- -- 45
2019-06-03 20:00:00 21.3 12 Sudoeste 31 Sudoeste 0 -- -- 43
2019-06-03 19:00:00 22.2 16 Sudoeste 28 Sudoeste 0 -- -- 39
2019-06-03 18:00:00 22.9 17 Sudoeste 31 Oeste 0 -- -- 37
2019-06-03 17:00:00 23.6 20 Oeste 33 Oeste 0 -- -- 39
2019-06-03 16:00:00 23.5 17 Oeste 33 Oeste 0 -- -- 39
2019-06-03 15:00:00 24.5 18 Oeste 33 Oeste 0 -- -- 40
2019-06-03 14:00:00 24 15 Oeste 26 Oeste 0 -- -- 38
2019-06-03 13:00:00 23.4 15 Oeste 28 Oeste 0 -- -- 44
2019-06-03 12:00:00 23 3 Norte 10 Oeste 0 -- -- 50
2019-06-03 11:00:00 18.1 2 Oeste 8 Noroeste 0 -- -- 66
2019-06-03 10:00:00 15.7 2 Oeste 12 Este 0 -- -- 78
2019-06-03 09:00:00 13.4 2 Oeste 7 Sudoeste 0 -- -- 85
2019-06-03 08:00:00 11.9 0 Calma 3 Sudoeste 0 -- -- 92
2019-06-03 07:00:00 10.6 0 Calma 5 Este 0 -- -- 88
2019-06-03 06:00:00 10.3 0 Calma 5 Este 0 -- -- 87
2019-06-03 05:00:00 10.8 2 Sudoeste 5 Sudoeste 0 -- -- 85
2019-06-03 04:00:00 11 0 Calma 4 Sudoeste 0 -- -- 84
2019-06-03 03:00:00 11.6 0 Calma 4 Este 0 -- -- 82
2019-06-03 02:00:00 11.7 0 Calma 7 Este 0 -- -- 81
2019-06-03 01:00:00 12.7 0 Calma 4 Sudoeste 0 -- -- 77
2019-06-03 00:00:00 13.3 2 Sur 6 Este 0 -- -- 75
2019-06-02 23:00:00 14.6 3 Nordeste 8 Este 0 -- -- 71
2019-06-02 22:00:00 15.9 2 Sudeste 6 Sur 0 -- -- 68
2019-06-02 21:00:00 17.6 2 Sudoeste 5 Sudoeste 0 -- -- 73
2019-06-02 20:00:00 18.9 4 Oeste 19 Este 0 -- -- 69
2019-06-02 19:00:00 21.5 7 Sudeste 26 Sudoeste 0 -- -- 51
2019-06-02 18:00:00 23.5 14 Sudoeste 32 Sudoeste 0 -- -- 40
2019-06-02 17:00:00 24.1 15 Oeste 27 Noroeste 0 -- -- 40
2019-06-02 16:00:00 26.1 15 Oeste 33 Oeste 0 -- -- 41
2019-06-02 15:00:00 25.4 16 Oeste 35 Oeste 0 -- -- 43
2019-06-02 14:00:00 25 20 Oeste 30 Oeste 0 -- -- 45
2019-06-02 13:00:00 25.5 10 Oeste 18 Oeste 0 -- -- 46
2019-06-02 12:00:00 23.9 6 Nordeste 17 Nordeste 0 -- -- 38
2019-06-02 11:00:00 21.5 5 Sudoeste 8 Sudoeste 0 -- -- 51
2019-06-02 10:00:00 18.7 3 Sudeste 5 Sudeste 0 -- -- 65
2019-06-02 09:00:00 11.7 0 Calma 5 Sudeste 0 -- -- 92
2019-06-02 08:00:00 10.1 0 Calma 4 Este 0 -- -- 93
2019-06-02 07:00:00 9.5 0 Calma 2 Este 0 -- -- 91
2019-06-02 06:00:00 9.6 0 Calma 4 Nordeste 0 -- -- 90
2019-06-02 05:00:00 9.9 0 Calma 4 Sudoeste 0 -- -- 89
2019-06-02 04:00:00 10.4 0 Calma 4 Este 0 -- -- 89
2019-06-02 03:00:00 11 0 Calma 4 Este 0 -- -- 87
2019-06-02 02:00:00 11.4 2 Sur 4 Este 0 -- -- 86
2019-06-02 01:00:00 12.2 0 Calma 4 Este 0 -- -- 83
2019-06-02 00:00:00 13.1 0 Calma 6 Sudeste 0 -- -- 78
2019-06-01 23:00:00 14.3 2 Sudoeste 9 Este 0 -- -- 73
2019-06-01 22:00:00 17.2 8 Sur 14 Sur 0 -- -- 60
2019-06-01 21:00:00 19.3 8 Oeste 23 Oeste 0 -- -- 56
2019-06-01 20:00:00 21.6 13 Sudoeste 28 Oeste 0 -- -- 51
2019-06-01 19:00:00 22.8 16 Oeste 26 Sudoeste 0 -- -- 45
2019-06-01 18:00:00 22.9 17 Oeste 33 Oeste 0 -- -- 45
2019-06-01 17:00:00 23.4 17 Oeste 27 Oeste 0 -- -- 47
2019-06-01 16:00:00 23.9 12 Oeste 25 Oeste 0 -- -- 44
2019-06-01 15:00:00 23.9 15 Sudoeste 30 Oeste 0 -- -- 44
2019-06-01 14:00:00 22.7 14 Oeste 25 Oeste 0 -- -- 48
2019-06-01 13:00:00 22.6 5 Nordeste 16 Noroeste 0 -- -- 49
2019-06-01 12:00:00 21.7 6 Noroeste 14 Noroeste 0 -- -- 49
2019-06-01 11:00:00 19.6 5 Norte 12 Norte 0 -- -- 56
2019-06-01 10:00:00 17 3 Sur 6 Sudeste 0 -- -- 63
2019-06-01 09:00:00 10.7 3 Sur 6 Sudeste 0 -- -- 90
2019-06-01 08:00:00 8.9 0 Calma 3 Este 0 -- -- 92
2019-06-01 07:00:00 8.6 0 Calma 3 Sur 0 -- -- 92
2019-06-01 06:00:00 8.7 0 Calma 3 Norte 0 -- -- 92
2019-06-01 05:00:00 8.7 0 Calma 5 Este 0 -- -- 91
2019-06-01 04:00:00 9.1 0 Calma 4 Este 0 -- -- 90
2019-06-01 03:00:00 9.6 0 Calma 4 Sur 0 -- -- 87
2019-06-01 02:00:00 10.3 2 Sudoeste 4 Sudoeste 0 -- -- 85
2019-06-01 01:00:00 11 3 Este 6 Este 0 -- -- 82
2019-06-01 00:00:00 12 2 Este 5 Este 0 -- -- 77
2019-05-31 23:00:00 13.8 3 Este 12 Sur 0 -- -- 70
2019-05-31 22:00:00 16.6 6 Sudoeste 21 Sudoeste 0 -- -- 59
2019-05-31 21:00:00 18.6 12 Oeste 23 Oeste 0 -- -- 52
2019-05-31 20:00:00 20.8 14 Oeste 24 Sudoeste 0 -- -- 46
2019-05-31 19:00:00 21.6 15 Sudoeste 27 Oeste 0 -- -- 44
2019-05-31 18:00:00 21.9 15 Oeste 27 Oeste 0 -- -- 44
2019-05-31 17:00:00 22.5 18 Oeste 30 Noroeste 0 -- -- 43
2019-05-31 16:00:00 21.6 18 Oeste 36 Oeste 0 -- -- 45
2019-05-31 15:00:00 21.9 18 Oeste 31 Oeste 0 -- -- 45
2019-05-31 14:00:00 21.5 17 Sudoeste 25 Sudoeste 0 -- -- 45
2019-05-31 13:00:00 20.7 13 Sudoeste 23 Sudoeste 0 -- -- 45
2019-05-31 12:00:00 20 11 Sudoeste 17 Sudoeste 0 -- -- 47
2019-05-31 11:00:00 18 3 Norte 8 Noroeste 0 -- -- 47
2019-05-31 10:00:00 14.8 3 Oeste 6 Noroeste 0 -- -- 50
2019-05-31 09:00:00 7.9 3 Sur 5 Sudeste 0 -- -- 79
2019-05-31 08:00:00 6.3 0 Calma 4 Nordeste 0 -- -- 79
2019-05-31 07:00:00 5.7 2 Nordeste 7 Nordeste 0 -- -- 77
2019-05-31 06:00:00 5.9 0 Calma 4 Sudoeste 0 -- -- 76
2019-05-31 05:00:00 6.5 0 Calma 8 Este 0 -- -- 75
2019-05-31 04:00:00 6.9 2 Sudoeste 4 Sudeste 0 -- -- 72
2019-05-31 03:00:00 7.1 2 Sudoeste 5 Este 0 -- -- 73
2019-05-31 02:00:00 7.8 0 Calma 3 Sudeste 0 -- -- 74
2019-05-31 01:00:00 8.7 2 Este 5 Noroeste 0 -- -- 79
2019-05-31 00:00:00 9.8 0 Calma 4 Este 0 -- -- 78
2019-05-30 23:00:00 11.6 3 Este 8 Sudoeste 0 -- -- 78
2019-05-30 22:00:00 14 0 Calma 14 Sudoeste 0 -- -- 70
2019-05-30 21:00:00 17.4 11 Sudoeste 24 Sudoeste 0 -- -- 59
2019-05-30 20:00:00 20.1 14 Sudoeste 26 Oeste 0 -- -- 47
2019-05-30 19:00:00 21 13 Sudoeste 26 Oeste 0 -- -- 44
2019-05-30 18:00:00 21.3 13 Oeste 32 Sudoeste 0 -- -- 47
2019-05-30 17:00:00 20.2 20 Sudoeste 29 Oeste 0 -- -- 49
2019-05-30 16:00:00 19.7 17 Oeste 30 Oeste 0 -- -- 51
2019-05-30 15:00:00 19.7 19 Sudoeste 33 Oeste 0 -- -- 51
2019-05-30 14:00:00 19.9 18 Sudoeste 28 Sudoeste 0 -- -- 50
2019-05-30 13:00:00 20.4 4 Norte 13 Nordeste 0 -- -- 43
2019-05-30 12:00:00 18.4 5 Norte 14 Norte 0 -- -- 46
2019-05-30 11:00:00 15.9 5 Oeste 11 Oeste 0 -- -- 49
2019-05-30 10:00:00 13 2 Sudoeste 6 Sur 0 -- -- 55
2019-05-30 09:00:00 6.4 2 Sudeste 6 Este 0 -- -- 87
2019-05-30 08:00:00 4.3 0 Calma 5 Este 0 -- -- 88
2019-05-30 07:00:00 3.6 0 Calma 3 Sudoeste 0 -- -- 86
2019-05-30 06:00:00 3.4 0 Calma 5 Oeste 0 -- -- 85
2019-05-30 05:00:00 3.3 0 Calma 5 Nordeste 0 -- -- 84
2019-05-30 04:00:00 3.5 0 Calma 5 Este 0 -- -- 82
2019-05-30 03:00:00 3.9 2 Oeste 5 Este 0 -- -- 80
2019-05-30 02:00:00 4.1 3 Sudoeste 8 Este 0 -- -- 78
2019-05-30 01:00:00 4.8 2 Sudeste 6 Este 0 -- -- 75
2019-05-30 00:00:00 5.9 0 Calma 6 Este 0 -- -- 70
2019-05-29 23:00:00 7.5 3 Este 13 Sur 0 -- -- 64
2019-05-29 22:00:00 9.9 9 Sur 25 Oeste 0 -- -- 51
2019-05-29 21:00:00 12.5 6 Norte 24 Nordeste 0 -- -- 43
2019-05-29 20:00:00 14.6 10 Nordeste 28 Norte 0 -- -- 36
2019-05-29 19:00:00 15.5 10 Nordeste 36 Oeste 0 -- -- 33
2019-05-29 18:00:00 16.3 12 Nordeste 27 Nordeste 0 -- -- 32
2019-05-29 17:00:00 16.5 10 Nordeste 29 Nordeste 0 -- -- 32
2019-05-29 16:00:00 17 8 Nordeste 29 Norte 0 -- -- 33
2019-05-29 15:00:00 16.7 12 Nordeste 23 Nordeste 0 -- -- 30
2019-05-29 14:00:00 16 9 Norte 28 Noroeste 0 -- -- 34
2019-05-29 13:00:00 14.4 8 Nordeste 21 Nordeste 0 -- -- 34
2019-05-29 12:00:00 12.9 9 Nordeste 26 Nordeste 0 -- -- 38
2019-05-29 11:00:00 12 9 Nordeste 29 Este 0 -- -- 39
2019-05-29 10:00:00 10.4 12 Nordeste 27 Nordeste 0 -- -- 42
2019-05-29 09:00:00 8.7 12 Norte 32 Nordeste 0 -- -- 50
2019-05-29 08:00:00 7.3 10 Nordeste 32 Noroeste 0 -- -- 54
2019-05-29 07:00:00 7.4 12 Nordeste 36 Nordeste 0 -- -- 53
2019-05-29 06:00:00 7.4 13 Nordeste 29 Nordeste 0 -- -- 52
2019-05-29 05:00:00 6.2 6 Nordeste 16 Este 0 -- -- 65
2019-05-29 04:00:00 4.5 0 Calma 8 Sudeste 0 -- -- 75
2019-05-29 03:00:00 5.1 0 Calma 12 Nordeste 0 -- -- 73
2019-05-29 02:00:00 6.1 4 Este 18 Norte 0 -- -- 67
2019-05-29 01:00:00 7.8 7 Nordeste 21 Nordeste 0 -- -- 59
2019-05-29 00:00:00 8 9 Este 22 Este 0 -- -- 55
2019-05-28 23:00:00 9.1 5 Nordeste 25 Norte 0 -- -- 46
2019-05-28 22:00:00 11.2 8 Norte 27 Oeste 0 -- -- 42
2019-05-28 21:00:00 12.8 4 Noroeste 21 Nordeste 0 -- -- 40
2019-05-28 20:00:00 15.3 8 Norte 26 Norte 0 -- -- 33
2019-05-28 19:00:00 16.6 11 Norte 32 Norte 0 -- -- 35
2019-05-28 18:00:00 15.9 9 Nordeste 23 Norte 0 -- -- 45
2019-05-28 17:00:00 16.4 6 Nordeste 27 Noroeste 0 -- -- 54
2019-05-28 16:00:00 17.5 8 Norte 26 Nordeste 0 -- -- 49
2019-05-28 15:00:00 18.2 9 Norte 22 Nordeste 0 -- -- 47
2019-05-28 14:00:00 18.8 8 Nordeste 24 Nordeste 0 -- -- 38
2019-05-28 13:00:00 18.2 5 Norte 20 Noroeste 0 -- -- 29
2019-05-28 12:00:00 17.3 6 Nordeste 17 Nordeste 0 -- -- 33
2019-05-28 11:00:00 15.2 7 Nordeste 15 Norte 0 -- -- 38
2019-05-28 10:00:00 13.1 4 Sudoeste 14 Este 0 -- -- 44
2019-05-28 09:00:00 7.6 6 Sudeste 12 Sudeste 0 -- -- 74
2019-05-28 08:00:00 5.1 2 Este 6 Nordeste 0 -- -- 93
2019-05-28 07:00:00 4.9 0 Calma 4 Sur 0 -- -- 93
2019-05-28 06:00:00 5.1 2 Este 4 Este 0 -- -- 91
2019-05-28 05:00:00 5.5 0 Calma 5 Oeste 0 -- -- 88
2019-05-28 04:00:00 5.9 0 Calma 8 Este 0 -- -- 85
2019-05-28 03:00:00 6.7 0 Calma 5 Nordeste 0 -- -- 82
2019-05-28 02:00:00 7.1 0 Calma 7 Sudeste 0 -- -- 80
2019-05-28 01:00:00 7.7 0 Calma 6 Este 0 -- -- 78
2019-05-28 00:00:00 8.9 0 Calma 6 Este 0 -- -- 74
2019-05-27 23:00:00 11.2 4 Este 12 Sudoeste 0 -- -- 63
2019-05-27 22:00:00 12.8 0 Calma 12 Norte 0 -- -- 58
2019-05-27 21:00:00 15.4 5 Norte 20 Norte 0 -- -- 50
2019-05-27 20:00:00 17.6 6 Nordeste 23 Este 0 -- -- 45
2019-05-27 19:00:00 18.4 9 Nordeste 23 Norte 0 -- -- 44
2019-05-27 18:00:00 18.1 8 Oeste 19 Oeste 0 -- -- 52
2019-05-27 17:00:00 17.2 12 Sudoeste 27 Sudoeste 0 -- -- 65
2019-05-27 16:00:00 16.6 17 Oeste 30 Oeste 0 -- -- 62
2019-05-27 15:00:00 18.4 10 Oeste 26 Sudoeste 0 -- -- 56
2019-05-27 14:00:00 20.1 12 Oeste 22 Sudoeste 0 -- -- 48
2019-05-27 13:00:00 19.2 13 Sudoeste 24 Sudoeste 0 -- -- 47
2019-05-27 12:00:00 18.5 3 Norte 13 Nordeste 0 -- -- 47
2019-05-27 11:00:00 16.5 5 Nordeste 14 Oeste 0 -- -- 50
2019-05-27 10:00:00 13.4 2 Sudoeste 5 Sur 0 -- -- 54
2019-05-27 09:00:00 6.7 3 Sur 6 Sudeste 0 -- -- 90
2019-05-27 08:00:00 4.7 0 Calma 5 Este 0 -- -- 94
2019-05-27 07:00:00 3.4 0 Calma 6 Este 0 -- -- 93
2019-05-27 06:00:00 3.4 0 Calma 6 Nordeste 0 -- -- 92
2019-05-27 05:00:00 3.8 2 Sudoeste 5 Este 0 -- -- 88
2019-05-27 04:00:00 4.2 0 Calma 6 Oeste 0 -- -- 87
2019-05-27 03:00:00 4.2 0 Calma 6 Este 0 -- -- 87
2019-05-27 02:00:00 4.8 2 Nordeste 5 Este 0 -- -- 83
2019-05-27 01:00:00 5.2 0 Calma 5 Este 0 -- -- 82
2019-05-27 00:00:00 5.9 3 Sur 5 Oeste 0 -- -- 79